Arvada, CO (80005)

8:06 PM MDT on April 26, 2015 (GMT -0600)
The Hills At Standley Lake | | Change Station
CLOSE
Current Station
Personal Weather Station
Location: Arvada, CO
Elevation: 5659 ft
Nearby Weather Stations

Elev 5659 ft 39.85 °N, 105.14 °W | Updated 8 minutes ago

Overcast
Overcast
41.2 °F
Feels Like 40 °F
N
3.2
Wind Variable Wind from ESE

Today
High -- | Low -- °F
--% Chance of Precip.
Yesterday
High -- | Low -- °F
Precip. -- in
6:07 AM 7:49 PM
First Quarter, 60% visible
Pressure 30.01 in
Visibility 1.5 miles
Clouds Mostly Cloudy 300 ft
Overcast 1500 ft
Windchill 40 °F
Dew Point 41 °F
Humidity 99%
Rainfall 0.54 in
Snow Depth Not available.
UV 0 out of 12
Pollen 3.10 out of 12
Air Quality Not available.
Flu Activity Sporadic
METAR KBJC 270147Z 02008KT 1 1/2SM -DZ BKN003 OVC015 05/05 A3001

More Conditions Fewer Conditions

Pressure 30.01 in
Visibility 1.5 miles
Clouds Mostly Cloudy 300 ft
Overcast 1500 ft
Windchill 40 °F
Dew Point 41 °F
Humidity 99%
Rainfall 0.54 in
Snow Depth Not available.
UV 0 out of 12
Pollen 3.10 out of 12
Air Quality Not available.
Flu Activity Sporadic
METAR KBJC 270147Z 02008KT 1 1/2SM -DZ BKN003 OVC015 05/05 A3001

More Conditions Fewer Conditions

The full scope of the disaster following a powerful 7.8-magnitude earthquake in Nepal may not come into view for days, but global charities are already sending emergency aid. Click to see how you can help.
Nowcast | as of 3:52 PM MDT on April 26, 2015

Rain will continue over the Front Range cities through the early evening. The rain will generally be light...but will be a bit heavier along and west of I-25 where rainfall rates will average close to one tenth of an inch per hour. Visibility will be lowered to a half mile in some places. There may be some snow mixed with the rain south of Castle Rock...but no accumulation is expected.

×

10-Day Weather Forecast

Almanac

Astronomy

Apr. 26, 2015 Rise Set
Actual Time
Civil Twilight
Nautical Twilight
Astronomical Twilight
Moon
Length of Visible Light
Length of Day
Tomorrow will be .
, % of the Moon is Illuminated

Today's Extremes

State Highs State Lows

Community

WunderPhotos

Upload Photos

1,817,204 photos uploaded!

WunderBlogs® & News

Nearby

Air Quality

  Air Quality AQ Index Pollutant
Not available.

Snow Depth

Station Depth Elevation

Earthquake Activity

City Distance Mag. Time & Date
Minimum magnitude displayed is 2.5.

Coastal Water Temperatures

Place Temperature

Stations

Nearby Weather Stations

Station Location Temp. Windchill Dew Point Humidity Wind Precip. Elev Updated Type